createdAt,value
2022-09-13T00:02:14.387Z,18.87
2022-09-13T00:04:41.229Z,18.61
2022-09-13T00:07:07.764Z,18.59
2022-09-13T00:09:34.359Z,18.73
2022-09-13T00:12:00.988Z,18.71
2022-09-13T00:14:27.535Z,18.72
2022-09-13T00:16:54.106Z,18.68
2022-09-13T00:19:20.699Z,18.53
2022-09-13T00:21:47.280Z,18.12
2022-09-13T00:24:13.961Z,18.20
2022-09-13T00:26:40.568Z,18.37
2022-09-13T00:29:07.230Z,18.71
2022-09-13T00:31:33.829Z,18.67
2022-09-13T00:34:00.772Z,18.60
2022-09-13T00:36:27.767Z,18.53
2022-09-13T00:38:54.433Z,18.59
2022-09-13T00:41:21.645Z,18.73
2022-09-13T00:44:02.337Z,18.49
2022-09-13T00:46:38.839Z,18.44
2022-09-13T00:49:38.157Z,18.24
2022-09-13T00:52:10.574Z,18.17
2022-09-13T00:54:42.640Z,18.11
2022-09-13T00:57:11.567Z,18.52
2022-09-13T00:59:45.246Z,18.35
2022-09-13T01:02:12.353Z,18.68
2022-09-13T01:04:39.566Z,18.46
2022-09-13T01:07:09.371Z,18.43
2022-09-13T01:09:39.952Z,18.23
2022-09-13T01:12:10.236Z,18.52
2022-09-13T01:14:37.609Z,18.52
2022-09-13T01:17:04.816Z,17.99
2022-09-13T01:19:31.952Z,18.17
2022-09-13T01:22:20.858Z,18.30
2022-09-13T01:25:38.360Z,17.88
2022-09-13T01:28:37.839Z,18.22
2022-09-13T01:31:26.475Z,17.88
2022-09-13T01:33:58.766Z,18.32
2022-09-13T01:36:49.606Z,18.28
2022-09-13T01:39:49.595Z,18.58
2022-09-13T01:42:31.676Z,18.28
2022-09-13T01:45:28.659Z,18.73
2022-09-13T01:48:02.221Z,18.81
2022-09-13T01:50:31.884Z,18.55
2022-09-13T01:53:14.591Z,18.38
2022-09-13T01:55:54.378Z,18.41
2022-09-13T01:58:46.904Z,18.66
2022-09-13T02:01:22.208Z,18.45
2022-09-13T02:04:10.376Z,18.28
2022-09-13T02:06:52.561Z,18.52
2022-09-13T02:09:26.177Z,18.62
2022-09-13T02:12:00.933Z,18.35
2022-09-13T02:14:33.923Z,18.33
2022-09-13T02:17:24.245Z,18.01
2022-09-13T02:20:09.335Z,18.21
2022-09-13T02:22:41.986Z,18.39
2022-09-13T02:25:13.843Z,18.46
2022-09-13T02:27:43.909Z,18.15
2022-09-13T02:30:12.626Z,18.27
2022-09-13T02:32:49.499Z,18.32
2022-09-13T02:35:22.053Z,18.14
2022-09-13T02:38:18.355Z,17.90
2022-09-13T02:40:56.338Z,18.36
2022-09-13T02:43:42.012Z,18.53
2022-09-13T02:46:27.653Z,18.32
2022-09-13T02:49:16.955Z,18.15
2022-09-13T02:52:01.160Z,18.53
2022-09-13T02:54:38.276Z,18.22
2022-09-13T02:57:10.910Z,17.99
2022-09-13T02:59:37.568Z,18.15
2022-09-13T03:02:09.160Z,18.16
2022-09-13T03:04:36.476Z,18.32
2022-09-13T03:07:06.046Z,18.32
2022-09-13T03:09:33.802Z,18.05
2022-09-13T03:12:19.548Z,17.86
2022-09-13T03:15:02.249Z,18.04
2022-09-13T03:17:59.667Z,17.82
2022-09-13T03:20:29.249Z,17.57
2022-09-13T03:23:24.993Z,17.89
2022-09-13T03:26:03.687Z,18.16
2022-09-13T03:29:07.056Z,18.19
2022-09-13T03:31:40.908Z,18.08
2022-09-13T03:34:16.900Z,18.43
2022-09-13T03:36:55.814Z,18.03
2022-09-13T03:39:36.964Z,17.92
2022-09-13T03:42:16.120Z,18.19
2022-09-13T03:44:47.689Z,18.10
2022-09-13T03:47:16.344Z,18.31
2022-09-13T03:49:43.184Z,18.03
2022-09-13T03:52:11.197Z,18.12
2022-09-13T03:54:38.772Z,18.03
2022-09-13T03:57:21.447Z,18.07
2022-09-13T03:59:54.053Z,17.97
2022-09-13T04:02:23.411Z,18.07
2022-09-13T04:04:50.378Z,18.11
2022-09-13T04:07:22.013Z,18.15
2022-09-13T04:09:48.816Z,17.83
2022-09-13T04:12:17.402Z,18.01
2022-09-13T04:14:44.207Z,18.00
2022-09-13T04:17:11.685Z,17.81
2022-09-13T04:19:38.674Z,17.80
2022-09-13T04:22:05.285Z,17.92
2022-09-13T04:24:32.067Z,18.04
2022-09-13T04:26:58.985Z,17.33
2022-09-13T04:29:26.809Z,17.62
2022-09-13T04:31:54.844Z,17.62
2022-09-13T04:34:24.526Z,17.40
2022-09-13T04:36:53.050Z,17.65
2022-09-13T04:39:21.177Z,17.82
2022-09-13T04:41:49.747Z,17.86
2022-09-13T04:44:17.534Z,17.57
2022-09-13T04:46:48.274Z,17.87
2022-09-13T04:49:16.318Z,17.49
2022-09-13T04:51:43.414Z,17.26
2022-09-13T04:54:15.248Z,17.35
2022-09-13T04:56:42.929Z,17.37
2022-09-13T04:59:10.985Z,17.57
2022-09-13T05:01:38.513Z,17.86
2022-09-13T05:04:06.687Z,17.77
2022-09-13T05:06:33.958Z,17.78
2022-09-13T05:09:00.592Z,18.32
2022-09-13T05:11:28.727Z,18.56
2022-09-13T05:14:00.295Z,18.51
2022-09-13T05:16:32.694Z,18.31
2022-09-13T05:19:00.180Z,18.60
2022-09-13T05:21:27.954Z,18.81
2022-09-13T05:23:55.775Z,18.53
2022-09-13T05:26:24.966Z,18.42
2022-09-13T05:28:51.780Z,18.41
2022-09-13T05:31:31.409Z,18.22
2022-09-13T05:34:03.621Z,18.36
2022-09-13T05:36:30.406Z,18.17
2022-09-13T05:39:19.191Z,17.86
2022-09-13T05:41:45.658Z,17.77
2022-09-13T05:44:13.511Z,18.06
2022-09-13T05:46:41.144Z,18.21
2022-09-13T05:49:07.769Z,18.16
2022-09-13T05:51:34.537Z,18.29
2022-09-13T05:54:02.156Z,18.38
2022-09-13T05:56:30.148Z,18.27
2022-09-13T05:58:57.196Z,18.35
2022-09-13T06:01:29.050Z,18.30
2022-09-13T06:03:59.792Z,18.58
2022-09-13T06:06:26.594Z,18.79
2022-09-13T06:08:54.784Z,18.91
2022-09-13T06:11:21.817Z,18.92
2022-09-13T06:13:48.968Z,19.04
2022-09-13T06:16:17.123Z,18.74
2022-09-13T06:18:44.704Z,19.01
2022-09-13T06:21:20.540Z,18.84
2022-09-13T06:23:48.897Z,18.36
2022-09-13T06:26:17.782Z,18.00
2022-09-13T06:28:49.236Z,18.24
2022-09-13T06:31:18.021Z,18.22
2022-09-13T06:33:45.569Z,18.27
2022-09-13T06:36:14.800Z,18.26
2022-09-13T06:38:42.198Z,17.83
2022-09-13T06:41:13.915Z,17.38
2022-09-13T06:43:41.928Z,17.41
2022-09-13T06:46:09.940Z,17.45
2022-09-13T06:48:38.968Z,17.85
2022-09-13T06:51:09.083Z,17.83
2022-09-13T06:53:37.262Z,17.74
2022-09-13T06:56:13.064Z,18.05
2022-09-13T06:58:41.618Z,17.88
2022-09-13T07:01:12.610Z,17.84
2022-09-13T07:03:41.922Z,17.99
2022-09-13T07:06:21.501Z,18.99
2022-09-13T07:08:51.116Z,19.23
2022-09-13T07:11:19.360Z,19.05
2022-09-13T07:13:50.551Z,19.14
2022-09-13T07:16:19.093Z,19.34
2022-09-13T07:18:46.528Z,19.16
2022-09-13T07:21:13.233Z,18.79
2022-09-13T07:23:40.092Z,18.39
2022-09-13T07:26:07.766Z,18.40
2022-09-13T07:28:37.605Z,18.41
2022-09-13T07:31:15.347Z,18.16
2022-09-13T07:33:43.544Z,18.77
2022-09-13T07:36:12.096Z,18.74
2022-09-13T07:38:41.047Z,18.17
2022-09-13T07:41:11.412Z,19.08
2022-09-13T07:43:38.332Z,19.45
2022-09-13T07:46:13.668Z,19.92
2022-09-13T07:48:42.322Z,19.34
2022-09-13T07:51:11.937Z,19.96
2022-09-13T07:53:39.961Z,19.28
2022-09-13T07:56:09.155Z,19.59
2022-09-13T07:58:37.731Z,19.39
2022-09-13T08:01:11.241Z,19.41
2022-09-13T08:03:38.686Z,19.26
2022-09-13T08:06:06.575Z,18.68
2022-09-13T08:08:34.565Z,18.91
2022-09-13T08:11:01.844Z,18.57
2022-09-13T08:13:29.014Z,18.97
2022-09-13T08:15:56.416Z,19.52
2022-09-13T08:18:23.083Z,18.99
2022-09-13T08:20:49.745Z,19.10
2022-09-13T08:23:16.399Z,19.64
2022-09-13T08:25:43.086Z,19.95
2022-09-13T08:28:18.343Z,19.55
2022-09-13T08:30:45.154Z,20.57
2022-09-13T08:33:12.315Z,20.13
2022-09-13T08:35:39.665Z,20.30
2022-09-13T08:38:07.595Z,20.24
2022-09-13T08:40:41.393Z,20.84
2022-09-13T08:43:26.753Z,21.07
2022-09-13T08:46:15.383Z,20.14
2022-09-13T08:48:46.522Z,20.98
2022-09-13T08:51:41.989Z,20.78
2022-09-13T08:54:12.415Z,20.01
2022-09-13T08:56:45.034Z,20.46
2022-09-13T08:59:26.653Z,20.93
2022-09-13T09:02:31.713Z,20.69
2022-09-13T09:05:07.141Z,21.11
2022-09-13T09:07:42.928Z,21.10
2022-09-13T09:10:24.122Z,20.32
2022-09-13T09:12:56.010Z,19.98
2022-09-13T09:15:22.554Z,20.27
2022-09-13T09:17:55.929Z,20.27
2022-09-13T09:20:43.003Z,20.03
2022-09-13T09:23:26.790Z,19.76
2022-09-13T09:25:58.255Z,19.71
2022-09-13T09:28:25.639Z,20.18
2022-09-13T09:30:52.185Z,20.35
2022-09-13T09:34:00.123Z,21.24
2022-09-13T09:36:44.566Z,21.55
2022-09-13T09:39:14.288Z,20.54
2022-09-13T09:41:41.055Z,20.94
2022-09-13T09:44:22.724Z,20.91
2022-09-13T09:47:05.080Z,20.72
2022-09-13T09:50:02.582Z,21.48
2022-09-13T09:52:53.658Z,20.82
2022-09-13T09:55:40.215Z,20.65
2022-09-13T09:58:11.294Z,20.75
2022-09-13T10:00:57.386Z,20.60
2022-09-13T10:03:29.828Z,20.76
2022-09-13T10:06:09.712Z,21.10
2022-09-13T10:08:38.561Z,21.16
2022-09-13T10:11:06.764Z,20.82
2022-09-13T10:13:33.673Z,21.12
2022-09-13T10:16:03.827Z,21.39
2022-09-13T10:18:43.980Z,21.92
2022-09-13T10:21:17.307Z,21.23
2022-09-13T10:23:45.204Z,21.89
2022-09-13T10:26:17.075Z,21.92
2022-09-13T10:29:05.924Z,21.78
2022-09-13T10:31:38.221Z,21.72
2022-09-13T10:34:17.566Z,22.09
2022-09-13T10:36:56.612Z,21.64
2022-09-13T10:39:25.259Z,21.46
2022-09-13T10:41:59.354Z,21.24
2022-09-13T10:44:28.686Z,21.33
2022-09-13T10:46:56.597Z,21.92
2022-09-13T10:49:46.684Z,21.76
2022-09-13T10:52:44.826Z,21.58
2022-09-13T10:55:20.467Z,21.10
2022-09-13T10:58:03.141Z,20.95
2022-09-13T11:00:45.659Z,21.03
2022-09-13T11:03:18.024Z,20.76
2022-09-13T11:05:56.349Z,20.49
2022-09-13T11:09:02.181Z,20.71
2022-09-13T11:11:52.598Z,20.92
2022-09-13T11:14:36.437Z,21.39
2022-09-13T11:17:16.899Z,21.91
2022-09-13T11:20:13.814Z,22.53
2022-09-13T11:22:43.114Z,21.82
2022-09-13T11:25:44.935Z,21.55
2022-09-13T11:28:53.246Z,21.38
2022-09-13T11:32:02.252Z,21.72
2022-09-13T11:34:56.140Z,21.84
2022-09-13T11:46:42.528Z,21.56
2022-09-13T11:49:30.828Z,21.62
2022-09-13T11:52:16.578Z,21.82
2022-09-13T11:54:58.269Z,21.90
2022-09-13T11:57:29.830Z,22.52
2022-09-13T12:00:02.512Z,22.42
2022-09-13T12:02:44.288Z,22.96
2022-09-13T12:05:24.948Z,22.95
2022-09-13T12:08:10.161Z,21.72
2022-09-13T12:11:02.630Z,21.72
2022-09-13T12:13:57.407Z,22.23
2022-09-13T12:16:36.381Z,21.64
2022-09-13T12:19:14.263Z,22.29
2022-09-13T12:21:43.863Z,22.18
2022-09-13T12:24:37.514Z,22.66
2022-09-13T12:27:39.950Z,22.66
2022-09-13T12:30:15.507Z,21.76
2022-09-13T12:32:45.003Z,22.08
2022-09-13T12:35:22.124Z,21.81
2022-09-13T12:38:07.514Z,21.78
2022-09-13T12:40:46.424Z,21.93
2022-09-13T12:43:23.018Z,22.13
2022-09-13T12:46:16.072Z,21.67
2022-09-13T12:49:31.023Z,21.73
2022-09-13T12:52:29.437Z,22.31
2022-09-13T12:55:46.478Z,21.64
2022-09-13T12:58:43.222Z,21.86
2022-09-13T13:01:16.926Z,21.77
2022-09-13T13:03:57.002Z,22.53
2022-09-13T13:06:33.876Z,21.93
2022-09-13T13:09:05.767Z,21.90
2022-09-13T13:11:45.310Z,22.10
2022-09-13T13:14:29.643Z,21.97
2022-09-13T13:17:34.423Z,21.75
2022-09-13T13:20:01.659Z,21.65
2022-09-13T13:22:43.048Z,21.75
2022-09-13T13:25:31.470Z,21.22
2022-09-13T13:27:58.916Z,21.74
2022-09-13T13:30:59.343Z,21.91
2022-09-13T13:33:28.934Z,21.73
2022-09-13T13:35:55.869Z,21.54
2022-09-13T13:38:28.527Z,22.10
2022-09-13T13:41:12.174Z,21.56
2022-09-13T13:43:39.489Z,22.12
2022-09-13T13:46:11.930Z,22.21
2022-09-13T13:48:42.640Z,21.08
2022-09-13T13:51:11.998Z,21.50
2022-09-13T13:53:40.047Z,20.98
2022-09-13T13:56:28.089Z,21.10
2022-09-13T13:59:00.343Z,21.25
2022-09-13T14:01:31.847Z,22.15
2022-09-13T14:04:02.404Z,21.93
2022-09-13T14:06:33.458Z,21.79
2022-09-13T14:09:23.301Z,21.48
2022-09-13T14:11:58.582Z,21.64
2022-09-13T14:14:43.591Z,22.05
2022-09-13T14:17:14.189Z,21.63
2022-09-13T14:19:43.259Z,22.01
2022-09-13T14:22:14.537Z,22.15
2022-09-13T14:24:51.231Z,22.32
2022-09-13T14:27:20.002Z,22.22
2022-09-13T14:29:53.407Z,22.25
2022-09-13T14:32:23.103Z,22.16
2022-09-13T14:35:02.013Z,22.01
2022-09-13T14:37:33.210Z,21.24
2022-09-13T14:40:20.452Z,21.61
2022-09-13T14:42:49.702Z,21.96
2022-09-13T14:45:18.661Z,21.83
2022-09-13T14:48:10.797Z,21.12
2022-09-13T14:50:41.641Z,21.69
2022-09-13T14:53:18.731Z,21.68
2022-09-13T14:56:01.631Z,21.51
2022-09-13T14:58:44.036Z,21.48
2022-09-13T15:01:14.233Z,21.32
2022-09-13T15:03:43.639Z,21.38
2022-09-13T15:06:25.901Z,21.70
2022-09-13T15:08:56.323Z,21.68
2022-09-13T15:11:35.534Z,21.53
2022-09-13T15:14:21.136Z,21.08
2022-09-13T15:17:02.257Z,21.13
2022-09-13T15:19:40.982Z,21.58
2022-09-13T15:22:15.446Z,21.27
2022-09-13T15:24:56.290Z,21.50
2022-09-13T15:27:42.740Z,21.60
2022-09-13T15:30:39.259Z,20.97
2022-09-13T15:33:09.880Z,21.25
2022-09-13T15:35:41.922Z,21.32
2022-09-13T15:38:30.967Z,21.65
2022-09-13T15:41:19.181Z,21.78
2022-09-13T15:43:48.405Z,20.85
2022-09-13T15:46:16.933Z,21.26
2022-09-13T15:48:53.611Z,21.18
2022-09-13T15:51:21.094Z,21.59
2022-09-13T15:53:47.711Z,20.97
2022-09-13T15:56:28.238Z,21.28
2022-09-13T15:58:54.826Z,21.90
2022-09-13T16:01:21.494Z,21.38
2022-09-13T16:03:48.197Z,22.42
2022-09-13T16:06:14.936Z,22.55
2022-09-13T16:08:41.577Z,22.42
2022-09-13T16:11:08.435Z,22.26
2022-09-13T16:13:36.254Z,22.34
2022-09-13T16:16:05.306Z,21.59
2022-09-13T16:18:32.476Z,21.49
2022-09-13T16:21:00.441Z,21.81
2022-09-13T16:23:27.180Z,21.87
2022-09-13T16:25:58.622Z,21.82
2022-09-13T16:28:25.682Z,21.82
2022-09-13T16:30:53.283Z,21.75
2022-09-13T16:33:20.200Z,21.29
2022-09-13T16:35:47.754Z,21.31
2022-09-13T16:38:14.713Z,21.51
2022-09-13T16:40:42.617Z,21.41
2022-09-13T16:43:09.848Z,21.23
2022-09-13T16:45:39.852Z,21.23
2022-09-13T16:48:07.222Z,21.00
2022-09-13T16:50:35.065Z,21.07
2022-09-13T16:53:02.198Z,20.86
2022-09-13T16:55:28.950Z,20.96
2022-09-13T16:57:56.136Z,21.02
2022-09-13T17:00:24.574Z,21.26
2022-09-13T17:02:51.804Z,21.05
2022-09-13T17:05:18.481Z,21.14
2022-09-13T17:07:45.259Z,20.84
2022-09-13T17:10:12.734Z,20.69
2022-09-13T17:12:40.622Z,20.50
2022-09-13T17:15:07.826Z,20.58
2022-09-13T17:17:36.347Z,20.70
2022-09-13T17:20:08.521Z,20.86
2022-09-13T17:22:35.184Z,20.70
2022-09-13T17:25:02.197Z,20.73
2022-09-13T17:27:29.069Z,20.82
2022-09-13T17:29:55.923Z,21.02
2022-09-13T17:32:22.563Z,20.86
2022-09-13T17:34:49.837Z,20.58
2022-09-13T17:37:16.486Z,20.68
2022-09-13T17:39:43.260Z,20.67
2022-09-13T17:42:10.932Z,20.50
2022-09-13T17:44:37.591Z,20.73
2022-09-13T17:47:06.520Z,20.68
2022-09-13T17:49:34.224Z,20.94
2022-09-13T17:52:02.542Z,20.92
2022-09-13T17:54:29.274Z,21.02
2022-09-13T17:56:56.019Z,21.06
2022-09-13T17:59:24.189Z,21.00
2022-09-13T18:01:53.265Z,20.92
2022-09-13T18:04:23.009Z,20.96
2022-09-13T18:06:52.627Z,20.75
2022-09-13T18:09:19.768Z,20.85
2022-09-13T18:11:46.944Z,20.52
2022-09-13T18:14:16.661Z,20.45
2022-09-13T18:16:45.691Z,20.33
2022-09-13T18:19:12.980Z,20.28
2022-09-13T18:21:41.496Z,20.68
2022-09-13T18:24:08.294Z,20.20
2022-09-13T18:26:39.930Z,20.24
2022-09-13T18:29:11.211Z,20.44
2022-09-13T18:31:39.728Z,20.24
2022-09-13T18:34:12.493Z,20.10
2022-09-13T18:36:39.803Z,20.11
2022-09-13T18:39:11.510Z,20.20
2022-09-13T18:41:47.369Z,19.94
2022-09-13T18:44:15.626Z,19.63
2022-09-13T18:46:43.384Z,19.99
2022-09-13T18:49:10.963Z,20.17
2022-09-13T18:51:43.687Z,19.64
2022-09-13T18:54:13.492Z,19.77
2022-09-13T18:56:40.304Z,19.63
2022-09-13T18:59:07.728Z,19.59
2022-09-13T19:01:36.678Z,19.71
2022-09-13T19:04:11.061Z,19.75
2022-09-13T19:06:46.676Z,19.75
2022-09-13T19:09:14.528Z,19.93
2022-09-13T19:11:47.243Z,20.02
2022-09-13T19:14:20.100Z,19.97
2022-09-13T19:16:49.185Z,19.86
2022-09-13T19:19:16.931Z,19.67
2022-09-13T19:21:43.966Z,19.19
2022-09-13T19:24:17.726Z,19.42
2022-09-13T19:26:47.836Z,19.71
2022-09-13T19:29:21.489Z,19.91
2022-09-13T19:31:49.648Z,20.16
2022-09-13T19:34:24.392Z,19.54
2022-09-13T19:36:57.414Z,19.59
2022-09-13T19:39:29.158Z,19.72
2022-09-13T19:42:00.142Z,19.38
2022-09-13T19:44:27.354Z,19.53
2022-09-13T19:47:23.858Z,19.39
2022-09-13T19:49:40.587Z,19.07
2022-09-13T19:52:08.321Z,19.35
2022-09-13T19:54:35.198Z,19.26
2022-09-13T19:57:04.128Z,19.31
2022-09-13T19:59:31.632Z,19.28
2022-09-13T20:01:58.431Z,18.91
2022-09-13T20:04:26.089Z,18.66
2022-09-13T20:06:52.771Z,19.01
2022-09-13T20:09:20.828Z,19.31
2022-09-13T20:11:48.790Z,19.50
2022-09-13T20:14:19.028Z,19.59
2022-09-13T20:16:46.323Z,19.18
2022-09-13T20:22:06.569Z,19.53
2022-09-13T20:24:33.556Z,19.60
2022-09-13T20:27:00.262Z,19.36
2022-09-13T20:29:26.966Z,19.29
2022-09-13T20:31:55.452Z,19.02
2022-09-13T20:34:22.358Z,18.92
2022-09-13T20:36:49.051Z,19.23
2022-09-13T20:39:16.146Z,19.24
2022-09-13T20:41:43.612Z,19.27
2022-09-13T20:44:10.797Z,19.02
2022-09-13T20:46:39.274Z,19.11
2022-09-13T20:49:08.531Z,18.98
2022-09-13T20:51:35.432Z,18.60
2022-09-13T20:54:02.188Z,18.60
2022-09-13T20:56:30.425Z,18.79
2022-09-13T20:59:00.572Z,18.77
2022-09-13T21:01:29.733Z,18.87
2022-09-13T21:03:56.984Z,18.80
2022-09-13T21:06:26.044Z,18.85
2022-09-13T21:08:53.994Z,18.56
2022-09-13T21:11:30.184Z,18.86
2022-09-13T21:14:00.173Z,19.05
2022-09-13T21:16:33.228Z,18.87
2022-09-13T21:19:03.406Z,19.13
2022-09-13T21:21:32.429Z,19.26
2022-09-13T21:24:00.536Z,18.53
2022-09-13T21:26:28.837Z,18.44
2022-09-13T21:28:56.879Z,18.54
2022-09-13T21:31:28.119Z,18.73
2022-09-13T21:34:04.150Z,18.72
2022-09-13T21:36:32.429Z,18.74
2022-09-13T21:38:59.038Z,19.05
2022-09-13T21:41:26.795Z,19.13
2022-09-13T21:43:54.522Z,18.79
2022-09-13T21:46:26.963Z,18.37
2022-09-13T21:49:00.381Z,18.70
2022-09-13T21:51:34.177Z,18.63
2022-09-13T21:54:02.587Z,18.83
2022-09-13T21:56:30.885Z,18.86
2022-09-13T21:59:00.158Z,18.88
2022-09-13T22:01:34.124Z,18.73
2022-09-13T22:04:03.055Z,18.59
2022-09-13T22:06:35.418Z,18.56
2022-09-13T22:09:08.223Z,18.61
2022-09-13T22:11:41.516Z,18.70
2022-09-13T22:14:17.185Z,18.58
2022-09-13T22:16:47.974Z,18.61
2022-09-13T22:19:22.722Z,18.40
2022-09-13T22:21:53.380Z,16.42
2022-09-13T22:24:23.188Z,17.11
2022-09-13T22:26:53.241Z,17.62
2022-09-13T22:29:21.513Z,17.12
2022-09-13T22:31:50.613Z,17.42
2022-09-13T22:34:22.161Z,17.43
2022-09-13T22:36:49.279Z,17.64
2022-09-13T22:39:17.412Z,17.65
2022-09-13T22:41:44.865Z,15.88
2022-09-13T22:44:11.991Z,15.72
2022-09-13T22:46:42.151Z,14.90
2022-09-13T22:49:12.573Z,16.30
2022-09-13T22:51:39.443Z,16.93
2022-09-13T22:54:08.044Z,16.89
2022-09-13T22:56:36.098Z,16.97
2022-09-13T22:59:07.255Z,17.43
2022-09-13T23:01:34.846Z,17.66
2022-09-13T23:04:02.624Z,17.45
2022-09-13T23:06:29.982Z,17.36
2022-09-13T23:09:00.116Z,16.79
2022-09-13T23:11:38.639Z,16.92
2022-09-13T23:14:07.654Z,17.35
2022-09-13T23:16:37.881Z,17.06
2022-09-13T23:19:05.349Z,16.92
2022-09-13T23:21:35.888Z,16.99
2022-09-13T23:24:04.325Z,16.92
2022-09-13T23:26:31.339Z,17.19
2022-09-13T23:29:00.545Z,17.43
2022-09-13T23:31:29.845Z,17.39
2022-09-13T23:33:59.708Z,17.39
2022-09-13T23:36:29.325Z,17.17
2022-09-13T23:38:58.418Z,17.19
2022-09-13T23:41:26.232Z,17.25
2022-09-13T23:43:54.235Z,17.08
2022-09-13T23:46:21.957Z,15.74
2022-09-13T23:48:49.631Z,15.44
2022-09-13T23:51:23.098Z,16.04
2022-09-13T23:53:50.907Z,16.54
2022-09-13T23:56:17.833Z,16.59
2022-09-13T23:58:44.625Z,16.89
